^^
Your Local Weather - Clay, NY Station Historical Data
Daily Summary for February 9, 2017 Units:  Metric    English   Both
« Previous Day
Next Day »
Daily Weekly Monthly Yearly Custom
  High: Low: Average:
Temperature: -3.2 °C -12.1 °C -8.2 °C
Dew Point: -7.6 °C -16.3 °C -12.2 °C
Humidity: 88% 57% 73%
Wind Speed: 12.9km/h 0km/h 6km/h
Wind Gust: 19.3km/h - -
Wind- - NW
Pressure: 1015.8 hPa 1007.7 hPa -
Precipitation: 0 mm    
Historical Graphs
 
 
Tabular Data for February 9, 2017
Time Temperature Dew Point Pressure Wind Wind Speed Wind Gust Humidity Rainfall Rate (Hourly) solar
00:02 -3.2 °C -8.4 °C 1009 hPa NW 4.8 km/h 16.1 km/h 67% 0 mm 0 W/m2
00:08 -3.2 °C -8.3 °C 1009 hPa NW 6.4 km/h 16.1 km/h 68% 0 mm 0 W/m2
00:14 -3.3 °C -8.3 °C 1009 hPa NW 4.8 km/h 8 km/h 68% 0 mm 0 W/m2
00:20 -3.3 °C -8.2 °C 1009 hPa NW 6.4 km/h 6.4 km/h 69% 0 mm 0 W/m2
00:26 -3.4 °C -7.9 °C 1009 hPa NNW 6.4 km/h 6.4 km/h 71% 0 mm 0 W/m2
00:32 -3.5 °C -8 °C 1009 hPa North 6.4 km/h 9.7 km/h 71% 0 mm 0 W/m2
00:38 -3.6 °C -8.1 °C 1009 hPa North 8 km/h 11.3 km/h 71% 0 mm 0 W/m2
00:44 -3.7 °C -8.2 °C 1009.4 hPa North 6.4 km/h 8 km/h 71% 0 mm 0 W/m2
00:50 -3.7 °C -8.2 °C 1009 hPa NNW 4.8 km/h 6.4 km/h 71% 0 mm 0 W/m2
00:56 -3.7 °C -8.3 °C 1008.7 hPa North 6.4 km/h 11.3 km/h 70% 0 mm 0 W/m2
01:02 -3.8 °C -8.8 °C 1008 hPa NE 8 km/h 8 km/h 68% 0 mm 0 W/m2
01:08 -3.8 °C -8.9 °C 1008 hPa North 8 km/h 9.7 km/h 68% 0 mm 0 W/m2
01:14 -3.9 °C -9.1 °C 1007.7 hPa NNW 8 km/h 9.7 km/h 67% 0 mm 0 W/m2
01:20 -3.9 °C -9.2 °C 1007.7 hPa NNW 8 km/h 8 km/h 67% 0 mm 0 W/m2
01:26 -3.9 °C -9.4 °C 1007.7 hPa North 6.4 km/h 9.7 km/h 66% 0 mm 0 W/m2
01:32 -4.1 °C -9.5 °C 1008 hPa NNW 8 km/h 8 km/h 66% 0 mm 0 W/m2
01:38 -4.1 °C -9.5 °C 1008 hPa North 8 km/h 12.9 km/h 66% 0 mm 0 W/m2
01:44 -4.1 °C -9.5 °C 1007.7 hPa NNW 8 km/h 9.7 km/h 66% 0 mm 0 W/m2
01:50 -4.1 °C -9.5 °C 1007.7 hPa North 8 km/h 8 km/h 66% 0 mm 0 W/m2
01:56 -4.1 °C -9.5 °C 1007.7 hPa NNE 8 km/h 8 km/h 66% 0 mm 0 W/m2
02:02 -4.2 °C -9.6 °C 1007.7 hPa NNW 6.4 km/h 8 km/h 66% 0 mm 0 W/m2
02:08 -4.3 °C -8.9 °C 1007.7 hPa NW 6.4 km/h 8 km/h 70% 0 mm 0 W/m2
02:14 -4.4 °C -8.7 °C 1008 hPa North 4.8 km/h 6.4 km/h 72% 0 mm 0 W/m2
02:20 -4.6 °C -8.6 °C 1008 hPa NNW 3.2 km/h 3.2 km/h 74% 0 mm 0 W/m2
02:26 -4.8 °C -8.2 °C 1008.4 hPa North 4.8 km/h 6.4 km/h 77% 0 mm 0 W/m2
02:32 -5.2 °C -8.1 °C 1008 hPa North 6.4 km/h 6.4 km/h 80% 0 mm 0 W/m2
02:38 -5.6 °C -8 °C 1008 hPa North 6.4 km/h 6.4 km/h 83% 0 mm 0 W/m2
02:44 -5.7 °C -7.9 °C 1008 hPa North 4.8 km/h 6.4 km/h 84% 0 mm 0 W/m2
02:50 -5.8 °C -7.9 °C 1008 hPa North 4.8 km/h 4.8 km/h 85% 0 mm 0 W/m2
02:56 -5.8 °C -7.8 °C 1008.4 hPa NNW 3.2 km/h 4.8 km/h 86% 0 mm 0 W/m2
03:02 -5.8 °C -7.6 °C 1008.4 hPa North 1.6 km/h 4.8 km/h 87% 0 mm 0 W/m2
03:08 -5.9 °C -7.7 °C 1008.4 hPa North 3.2 km/h 4.8 km/h 87% 0 mm 0 W/m2
03:14 -5.9 °C -7.8 °C 1008.4 hPa North 3.2 km/h 4.8 km/h 87% 0 mm 0 W/m2
03:20 -6 °C -7.8 °C 1008.4 hPa NNW 3.2 km/h 3.2 km/h 87% 0 mm 0 W/m2
03:26 -6 °C -7.8 °C 1008.7 hPa NNW 3.2 km/h 6.4 km/h 87% 0 mm 0 W/m2
03:32 -6.1 °C -7.9 °C 1008.7 hPa NNW 3.2 km/h 3.2 km/h 87% 0 mm 0 W/m2
03:38 -6.1 °C -7.9 °C 1008.7 hPa NNW 1.6 km/h 3.2 km/h 87% 0 mm 0 W/m2
03:44 -6.1 °C -7.9 °C 1008.7 hPa NNW 1.6 km/h 3.2 km/h 87% 0 mm 0 W/m2
03:50 -6.1 °C -7.8 °C 1008.7 hPa NNW 1.6 km/h 1.6 km/h 88% 0 mm 0 W/m2
03:56 -6.1 °C -7.8 °C 1008.7 hPa NNW 1.6 km/h 1.6 km/h 88% 0 mm 0 W/m2
04:02 -6.1 °C -7.8 °C 1008.7 hPa NNW 1.6 km/h 4.8 km/h 88% 0 mm 0 W/m2
04:08 -6.1 °C -7.8 °C 1008.7 hPa NNW 1.6 km/h 4.8 km/h 88% 0 mm 0 W/m2
04:14 -6.3 °C -8.2 °C 1009 hPa NW 3.2 km/h 11.3 km/h 87% 0 mm 0 W/m2
04:20 -6.8 °C -8.6 °C 1009 hPa NNW 6.4 km/h 6.4 km/h 87% 0 mm 0 W/m2
04:26 -6.9 °C -8.7 °C 1009 hPa NNW 8 km/h 8 km/h 87% 0 mm 0 W/m2
04:32 -7.2 °C -8.9 °C 1009 hPa NNW 8 km/h 8 km/h 87% 0 mm 0 W/m2
04:38 -7.2 °C -8.9 °C 1009.4 hPa North 6.4 km/h 9.7 km/h 88% 0 mm 0 W/m2
04:44 -7.5 °C -9.3 °C 1009.4 hPa NW 6.4 km/h 11.3 km/h 87% 0 mm 0 W/m2
04:50 -7.7 °C -9.5 °C 1009.4 hPa NNW 8 km/h 8 km/h 87% 0 mm 0 W/m2
04:56 -7.8 °C -9.5 °C 1009.4 hPa NNW 6.4 km/h 8 km/h 88% 0 mm 0 W/m2
05:02 -7.9 °C -9.7 °C 1009.4 hPa NNW 6.4 km/h 6.4 km/h 87% 0 mm 0 W/m2
05:08 -8.1 °C -9.7 °C 1009.4 hPa WNW 6.4 km/h 14.5 km/h 88% 0 mm 0 W/m2
05:14 -8.2 °C -9.8 °C 1009.4 hPa North 8 km/h 8 km/h 88% 0 mm 0 W/m2
05:20 -8.2 °C -10 °C 1009.4 hPa NNW 8 km/h 8 km/h 87% 0 mm 0 W/m2
05:26 -8.3 °C -10.1 °C 1009.4 hPa NNW 8 km/h 11.3 km/h 87% 0 mm 0 W/m2
05:32 -8.4 °C -10.2 °C 1009.4 hPa NNW 9.7 km/h 9.7 km/h 87% 0 mm 0 W/m2
05:38 -8.6 °C -10.3 °C 1009 hPa North 9.7 km/h 11.3 km/h 87% 0 mm 0 W/m2
05:44 -8.7 °C -10.4 °C 1009 hPa NNW 8 km/h 12.9 km/h 87% 0 mm 0 W/m2
05:50 -8.7 °C -10.7 °C 1009 hPa NNW 9.7 km/h 9.7 km/h 86% 0 mm 0 W/m2
05:56 -8.7 °C -10.7 °C 1009 hPa NW 8 km/h 11.3 km/h 86% 0 mm 0 W/m2
06:02 -8.7 °C -10.7 °C 1009.4 hPa NNW 6.4 km/h 11.3 km/h 86% 0 mm 0 W/m2
06:08 -8.7 °C -10.6 °C 1009.4 hPa NNW 4.8 km/h 11.3 km/h 86% 0 mm 0 W/m2
06:14 -8.7 °C -10.7 °C 1010 hPa NNW 4.8 km/h 4.8 km/h 85% 0 mm 0 W/m2
06:20 -8.7 °C -11.1 °C 1009.7 hPa NNW 6.4 km/h 6.4 km/h 83% 0 mm 0 W/m2
06:26 -8.7 °C -11.2 °C 1010 hPa NNW 6.4 km/h 8 km/h 82% 0 mm 0 W/m2
06:32 -8.7 °C -11.2 °C 1010 hPa North 6.4 km/h 6.4 km/h 82% 0 mm 0 W/m2
06:38 -8.7 °C -11.3 °C 1010 hPa North 6.4 km/h 9.7 km/h 81% 0 mm 0 W/m2
06:44 -8.8 °C -11.4 °C 1010 hPa North 8 km/h 8 km/h 81% 0 mm 0 W/m2
06:50 -8.8 °C -11.3 °C 1010 hPa NNW 6.4 km/h 6.4 km/h 82% 0 mm 0 W/m2
06:56 -8.8 °C -11.5 °C 1010 hPa North 6.4 km/h 11.3 km/h 81% 0 mm 0 W/m2
07:02 -9 °C -12 °C 1010.4 hPa North 9.7 km/h 11.3 km/h 79% 0 mm 0 W/m2
07:08 -9.1 °C -12.1 °C 1010.4 hPa NNW 9.7 km/h 12.9 km/h 79% 0 mm 0 W/m2
07:14 -9.1 °C -12.1 °C 1010.4 hPa NNW 8 km/h 9.7 km/h 79% 0 mm 0 W/m2
07:20 -9.2 °C -12.3 °C 1010.4 hPa North 6.4 km/h 14.5 km/h 78% 0 mm 0 W/m2
07:26 -9.3 °C -12.6 °C 1010.4 hPa NNW 8 km/h 14.5 km/h 77% 0 mm 0 W/m2
07:32 -9.4 °C -12.7 °C 1010.4 hPa NNW 6.4 km/h 14.5 km/h 77% 0 mm 0 W/m2
07:38 -9.5 °C -12.8 °C 1010.7 hPa NNW 6.4 km/h 14.5 km/h 77% 0 mm 7 W/m2
07:44 -9.6 °C -13.1 °C 1011.1 hPa NNW 8 km/h 14.5 km/h 76% 0 mm 9 W/m2
07:50 -9.6 °C -12.9 °C 1011.1 hPa NW 8 km/h 8 km/h 77% 0 mm 12 W/m2
07:56 -9.6 °C -12.7 °C 1011.1 hPa NW 6.4 km/h 9.7 km/h 78% 0 mm 12 W/m2
08:02 -9.6 °C -12.7 °C 1011.1 hPa NNW 6.4 km/h 6.4 km/h 78% 0 mm 16 W/m2
08:08 -9.6 °C -12.7 °C 1011.1 hPa North 6.4 km/h 8 km/h 78% 0 mm 30 W/m2
08:14 -9.6 °C -12.7 °C 1011.1 hPa NW 6.4 km/h 8 km/h 78% 0 mm 37 W/m2
08:20 -9.4 °C -12.6 °C 1011.1 hPa NW 4.8 km/h 4.8 km/h 78% 0 mm 49 W/m2
08:26 -9.4 °C -12.5 °C 1011.1 hPa NNW 3.2 km/h 4.8 km/h 78% 0 mm 54 W/m2
08:32 -9.4 °C -12.7 °C 1011.1 hPa NW 4.8 km/h 9.7 km/h 77% 0 mm 58 W/m2
08:38 -9.5 °C -12.8 °C 1011.1 hPa NNW 8 km/h 9.7 km/h 77% 0 mm 63 W/m2
08:44 -9.6 °C -13 °C 1011.1 hPa NNW 8 km/h 9.7 km/h 76% 0 mm 72 W/m2
08:50 -9.5 °C -12.8 °C 1011.1 hPa NNW 8 km/h 8 km/h 77% 0 mm 77 W/m2
08:56 -9.4 °C -12.7 °C 1011.1 hPa North 6.4 km/h 8 km/h 77% 0 mm 79 W/m2
09:02 -9.4 °C -12.9 °C 1011.1 hPa NW 6.4 km/h 11.3 km/h 76% 0 mm 81 W/m2
09:08 -9.6 °C -13.1 °C 1011.1 hPa NNW 8 km/h 11.3 km/h 76% 0 mm 79 W/m2
09:14 -9.6 °C -12.8 °C 1011.1 hPa NNW 8 km/h 9.7 km/h 77% 0 mm 81 W/m2
09:20 -9.4 °C -12.6 °C 1011.1 hPa North 6.4 km/h 6.4 km/h 78% 0 mm 97 W/m2
09:26 -9.3 °C -12.6 °C 1011.1 hPa NNW 6.4 km/h 8 km/h 77% 0 mm 102 W/m2
09:32 -9.3 °C -12.6 °C 1011.1 hPa NW 8 km/h 8 km/h 77% 0 mm 139 W/m2
09:38 -9.1 °C -12.7 °C 1011.1 hPa NNW 8 km/h 16.1 km/h 75% 0 mm 74 W/m2
09:44 -9.2 °C -12.8 °C 1011.4 hPa North 9.7 km/h 9.7 km/h 75% 0 mm 141 W/m2
09:50 -8.7 °C -12.6 °C 1011.1 hPa NW 8 km/h 12.9 km/h 73% 0 mm 128 W/m2
09:56 -8.9 °C -12.7 °C 1011.1 hPa NNW 8 km/h 12.9 km/h 74% 0 mm 174 W/m2
10:02 -8.3 °C -12.2 °C 1011.1 hPa NNW 8 km/h 12.9 km/h 74% 0 mm 171 W/m2
10:08 -8.3 °C -12.3 °C 1011.1 hPa NW 4.8 km/h 12.9 km/h 73% 0 mm 139 W/m2
10:14 -8.8 °C -13.2 °C 1011.4 hPa NNE 8 km/h 14.5 km/h 71% 0 mm 158 W/m2
10:20 -8.7 °C -12.7 °C 1011.4 hPa NNW 9.7 km/h 9.7 km/h 73% 0 mm 188 W/m2
10:26 -8.6 °C -12.3 °C 1011.4 hPa WNW 4.8 km/h 9.7 km/h 74% 0 mm 162 W/m2
10:32 -8.7 °C -12.8 °C 1011.4 hPa NW 6.4 km/h 8 km/h 72% 0 mm 195 W/m2
10:38 -8.6 °C -12.8 °C 1011.4 hPa NW 8 km/h 11.3 km/h 72% 0 mm 202 W/m2
10:44 -8.6 °C -12.9 °C 1011.7 hPa WNW 8 km/h 17.7 km/h 71% 0 mm 218 W/m2
10:50 -8.8 °C -12.9 °C 1011.4 hPa NNW 8 km/h 11.3 km/h 72% 0 mm 158 W/m2
10:56 -8.8 °C -12.9 °C 1011.4 hPa WNW 8 km/h 19.3 km/h 72% 0 mm 214 W/m2
11:02 -8.7 °C -13 °C 1011.4 hPa NNW 8 km/h 12.9 km/h 71% 0 mm 206 W/m2
11:08 -8.7 °C -13.2 °C 1011.4 hPa NW 8 km/h 12.9 km/h 70% 0 mm 186 W/m2
11:14 -8.7 °C -13.2 °C 1011.7 hPa NW 8 km/h 9.7 km/h 70% 0 mm 204 W/m2
11:20 -8.8 °C -13.7 °C 1011.7 hPa NW 8 km/h 14.5 km/h 68% 0 mm 204 W/m2
11:26 -8.8 °C -13.5 °C 1011.7 hPa NNW 9.7 km/h 14.5 km/h 69% 0 mm 204 W/m2
11:32 -8.9 °C -13.6 °C 1012.1 hPa North 8 km/h 14.5 km/h 69% 0 mm 199 W/m2
11:38 -8.8 °C -13.7 °C 1012.1 hPa NW 8 km/h 14.5 km/h 68% 0 mm 278 W/m2
11:44 -8.8 °C -13.5 °C 1012.1 hPa WNW 8 km/h 9.7 km/h 69% 0 mm 274 W/m2
11:50 -9 °C -13.8 °C 1012.1 hPa NW 9.7 km/h 9.7 km/h 68% 0 mm 250 W/m2
11:56 -9.1 °C -14.1 °C 1012.1 hPa WNW 9.7 km/h 9.7 km/h 67% 0 mm 322 W/m2
12:02 -9.1 °C -13.9 °C 1012.1 hPa NNW 8 km/h 8 km/h 68% 0 mm 276 W/m2
12:08 -8.9 °C -13.7 °C 1012.1 hPa NNW 8 km/h 8 km/h 68% 0 mm 264 W/m2
12:14 -9.1 °C -14.3 °C 1012.1 hPa WNW 8 km/h 8 km/h 66% 0 mm 234 W/m2
12:20 -9.1 °C -14.3 °C 1012.1 hPa NNW 8 km/h 8 km/h 66% 0 mm 311 W/m2
12:26 -9 °C -14 °C 1012.1 hPa NNW 8 km/h 8 km/h 67% 0 mm 306 W/m2
12:32 -8.8 °C -14.2 °C 1012.1 hPa NW 8 km/h 8 km/h 65% 0 mm 264 W/m2
12:38 -8.8 °C -14.2 °C 1012.1 hPa WNW 9.7 km/h 16.1 km/h 65% 0 mm 362 W/m2
12:44 -8.4 °C -14.1 °C 1011.7 hPa WNW 8 km/h 9.7 km/h 64% 0 mm 882 W/m2
12:50 -8.7 °C -14.3 °C 1012.1 hPa NNW 9.7 km/h 17.7 km/h 64% 0 mm 329 W/m2
12:56 -9 °C -14.4 °C 1011.7 hPa NW 9.7 km/h 17.7 km/h 65% 0 mm 209 W/m2
13:02 -8.7 °C -13.7 °C 1011.7 hPa NW 8 km/h 9.7 km/h 67% 0 mm 434 W/m2
13:08 -8.6 °C -13.8 °C 1011.7 hPa NNE 8 km/h 11.3 km/h 66% 0 mm 264 W/m2
13:14 -8.6 °C -14.2 °C 1011.4 hPa NNW 8 km/h 9.7 km/h 64% 0 mm 647 W/m2
13:20 -8.4 °C -14 °C 1011.7 hPa NW 8 km/h 9.7 km/h 64% 0 mm 747 W/m2
13:26 -8.6 °C -13.9 °C 1011.7 hPa NW 11.3 km/h 17.7 km/h 65% 0 mm 420 W/m2
13:32 -8.4 °C -14.2 °C 1011.7 hPa NW 11.3 km/h 14.5 km/h 63% 0 mm 691 W/m2
13:38 -9.1 °C -14.6 °C 1011.7 hPa NNW 12.9 km/h 14.5 km/h 64% 0 mm 204 W/m2
13:44 -9.1 °C -14.4 °C 1011.7 hPa NW 11.3 km/h 17.7 km/h 65% 0 mm 295 W/m2
13:50 -9.1 °C -14.5 °C 1011.7 hPa NNW 9.7 km/h 9.7 km/h 65% 0 mm 195 W/m2
13:56 -9.3 °C -14.4 °C 1011.7 hPa NNW 9.7 km/h 12.9 km/h 66% 0 mm 179 W/m2
14:02 -9.4 °C -14.6 °C 1011.7 hPa NNW 9.7 km/h 9.7 km/h 66% 0 mm 204 W/m2
14:08 -9.4 °C -14.8 °C 1011.7 hPa West 9.7 km/h 19.3 km/h 65% 0 mm 499 W/m2
14:14 -9.1 °C -14.4 °C 1012.1 hPa NNW 9.7 km/h 9.7 km/h 65% 0 mm 540 W/m2
14:20 -8.7 °C -14.3 °C 1012.1 hPa NW 9.7 km/h 9.7 km/h 64% 0 mm 499 W/m2
14:26 -8.2 °C -14 °C 1012.1 hPa NW 9.7 km/h 12.9 km/h 63% 0 mm 582 W/m2
14:32 -8.3 °C -14.3 °C 1012.1 hPa NW 11.3 km/h 11.3 km/h 62% 0 mm 541 W/m2
14:38 -8.8 °C -14.9 °C 1012.1 hPa WNW 9.7 km/h 12.9 km/h 61% 0 mm 448 W/m2
14:44 -9.1 °C -15.1 °C 1012.1 hPa NW 9.7 km/h 11.3 km/h 62% 0 mm 132 W/m2
14:50 -9.2 °C -15.3 °C 1012.1 hPa NW 9.7 km/h 14.5 km/h 61% 0 mm 281 W/m2
14:56 -8.7 °C -14.7 °C 1012.4 hPa NNW 9.7 km/h 14.5 km/h 62% 0 mm 330 W/m2
15:02 -8.9 °C -15.1 °C 1012.8 hPa NNW 8 km/h 11.3 km/h 61% 0 mm 155 W/m2
15:08 -8.8 °C -15.2 °C 1012.8 hPa NNW 9.7 km/h 11.3 km/h 60% 0 mm 410 W/m2
15:16 -8.8 °C -15.2 °C 1012.8 hPa North 8 km/h 11.3 km/h 60% 0 mm 98 W/m2
15:28 -9.1 °C -15.4 °C 1012.8 hPa NW 8 km/h 8 km/h 60% 0 mm 105 W/m2
15:34 -8.9 °C -15.4 °C 1012.8 hPa WSW 8 km/h 12.9 km/h 59% 0 mm 230 W/m2
15:40 -8.7 °C -15.7 °C 1013.1 hPa NW 9.7 km/h 9.7 km/h 57% 0 mm 207 W/m2
15:46 -8.7 °C -15.5 °C 1013.1 hPa WNW 11.3 km/h 16.1 km/h 58% 0 mm 320 W/m2
15:52 -8.8 °C -15.6 °C 1013.1 hPa WNW 8 km/h 11.3 km/h 58% 0 mm 100 W/m2
15:58 -9.1 °C -15.6 °C 1013.1 hPa NW 9.7 km/h 16.1 km/h 59% 0 mm 65 W/m2
16:04 -9.2 °C -15.7 °C 1013.4 hPa NW 9.7 km/h 12.9 km/h 59% 0 mm 44 W/m2
16:10 -9.2 °C -15.8 °C 1013.4 hPa NW 6.4 km/h 6.4 km/h 59% 0 mm 46 W/m2
16:16 -9.2 °C -15.8 °C 1013.4 hPa NNW 8 km/h 16.1 km/h 59% 0 mm 56 W/m2
16:22 -9.2 °C -15.3 °C 1013.4 hPa NW 9.7 km/h 14.5 km/h 61% 0 mm 67 W/m2
16:28 -9.1 °C -15.2 °C 1013.4 hPa WNW 8 km/h 14.5 km/h 61% 0 mm 70 W/m2
16:34 -8.9 °C -15.4 °C 1013.8 hPa NW 8 km/h 8 km/h 59% 0 mm 67 W/m2
16:40 -8.8 °C -15.2 °C 1013.8 hPa NNW 6.4 km/h 8 km/h 60% 0 mm 62 W/m2
16:46 -8.9 °C -15.7 °C 1013.8 hPa WNW 8 km/h 14.5 km/h 58% 0 mm 47 W/m2
16:52 -9.1 °C -15.8 °C 1013.8 hPa NW 9.7 km/h 9.7 km/h 58% 0 mm 42 W/m2
16:58 -9 °C -16 °C 1014.1 hPa NW 9.7 km/h 11.3 km/h 57% 0 mm 30 W/m2
17:04 -9.1 °C -15.8 °C 1014.1 hPa WNW 8 km/h 12.9 km/h 58% 0 mm 23 W/m2
17:10 -9.1 °C -15.9 °C 1014.1 hPa NW 6.4 km/h 6.4 km/h 58% 0 mm 16 W/m2
17:16 -9.2 °C -15.7 °C 1014.1 hPa NW 4.8 km/h 6.4 km/h 59% 0 mm 11 W/m2
17:22 -9.2 °C -16 °C 1014.1 hPa NW 4.8 km/h 12.9 km/h 58% 0 mm 7 W/m2
17:28 -9.3 °C -15.9 °C 1014.4 hPa NW 4.8 km/h 12.9 km/h 59% 0 mm 5 W/m2
17:34 -9.3 °C -15.8 °C 1014.4 hPa NNW 4.8 km/h 9.7 km/h 59% 0 mm 0 W/m2
17:40 -9.3 °C -15.9 °C 1014.4 hPa NW 4.8 km/h 4.8 km/h 59% 0 mm 0 W/m2
17:46 -9.4 °C -16 °C 1014.4 hPa WNW 3.2 km/h 4.8 km/h 59% 0 mm 0 W/m2
17:56 -9.6 °C -15.9 °C 1014.4 hPa NW 3.2 km/h 6.4 km/h 60% 0 mm 0 W/m2
18:02 -9.6 °C -15.9 °C 1014.4 hPa NNW 3.2 km/h 3.2 km/h 60% 0 mm 0 W/m2
18:08 -9.6 °C -15.9 °C 1014.4 hPa WNW 3.2 km/h 4.8 km/h 60% 0 mm 0 W/m2
18:14 -9.6 °C -16.2 °C 1014.8 hPa WNW 3.2 km/h 3.2 km/h 59% 0 mm 0 W/m2
18:22 -9.7 °C -16.1 °C 1014.8 hPa WNW 1.6 km/h 1.6 km/h 60% 0 mm 0 W/m2
18:32 -9.8 °C -16.2 °C 1014.8 hPa Calm   1.6 km/h 60% 0 mm 0 W/m2
18:38 -9.9 °C -16.3 °C 1014.8 hPa Calm   1.6 km/h 60% 0 mm 0 W/m2
18:50 -10.1 °C -16.2 °C 1014.8 hPa Calm     61% 0 mm 0 W/m2
18:56 -10.2 °C -16.3 °C 1014.8 hPa Calm   1.6 km/h 61% 0 mm 0 W/m2
19:02 -10.3 °C -16.2 °C 1014.8 hPa Calm     62% 0 mm 0 W/m2
19:08 -10.4 °C -16.2 °C 1014.8 hPa Calm     63% 0 mm 0 W/m2
19:18 -10.6 °C -16.1 °C 1015.1 hPa Calm     64% 0 mm 0 W/m2
19:36 -10.9 °C -16.1 °C 1015.1 hPa Calm     66% 0 mm 0 W/m2
19:44 -11.2 °C -16.1 °C 1015.1 hPa Calm     67% 0 mm 0 W/m2
19:52 -11.4 °C -16.2 °C 1015.1 hPa Calm     68% 0 mm 0 W/m2
19:58 -11.7 °C -16.3 °C 1015.1 hPa Calm     69% 0 mm 0 W/m2
20:08 -12 °C -15.8 °C 1015.1 hPa Calm     73% 0 mm 0 W/m2
20:14 -12.1 °C -15.6 °C 1015.1 hPa Calm     75% 0 mm 0 W/m2
20:20 -11.9 °C -15.5 °C 1015.1 hPa Calm     75% 0 mm 0 W/m2
20:26 -11.7 °C -15.1 °C 1015.1 hPa Calm     76% 0 mm 0 W/m2
20:38 -11.2 °C -14.4 °C 1015.1 hPa Calm     77% 0 mm 0 W/m2
20:44 -10.7 °C -13.9 °C 1015.1 hPa Calm     77% 0 mm 0 W/m2
20:50 -10.2 °C -13.5 °C 1014.8 hPa Calm     77% 0 mm 0 W/m2
20:56 -10.2 °C -13.7 °C 1014.8 hPa Calm     76% 0 mm 0 W/m2
21:02 -10.3 °C -13.8 °C 1014.8 hPa Calm     76% 0 mm 0 W/m2
21:08 -10.4 °C -13.8 °C 1014.8 hPa Calm     76% 0 mm 0 W/m2
21:12 -10.4 °C -13.8 °C 1014.8 hPa Calm     76% 0 mm 0 W/m2
21:18 -10.3 °C -13.6 °C 1014.8 hPa Calm   1.6 km/h 77% 0 mm 0 W/m2
21:24 -9.9 °C -13.2 °C 1015.1 hPa WNW 1.6 km/h 1.6 km/h 77% 0 mm 0 W/m2
21:30 -9.2 °C -13.3 °C 1015.1 hPa SW 3.2 km/h 3.2 km/h 72% 0 mm 0 W/m2
21:36 -8.7 °C -12.7 °C 1015.1 hPa WSW 4.8 km/h 9.7 km/h 73% 0 mm 0 W/m2
21:42 -8.6 °C -11.6 °C 1015.5 hPa West 4.8 km/h 6.4 km/h 79% 0 mm 0 W/m2
21:48 -8.7 °C -11.2 °C 1015.1 hPa WSW 3.2 km/h 6.4 km/h 82% 0 mm 0 W/m2
21:54 -8.7 °C -10.9 °C 1015.1 hPa WSW 1.6 km/h 1.6 km/h 84% 0 mm 0 W/m2
22:00 -8.6 °C -10.5 °C 1015.1 hPa WSW 1.6 km/h 3.2 km/h 86% 0 mm 0 W/m2
22:06 -8.4 °C -10.3 °C 1015.1 hPa WSW 1.6 km/h 3.2 km/h 86% 0 mm 0 W/m2
22:12 -8.3 °C -10.3 °C 1015.1 hPa SW 3.2 km/h 3.2 km/h 86% 0 mm 0 W/m2
22:18 -8.1 °C -9.9 °C 1015.1 hPa West 3.2 km/h 4.8 km/h 87% 0 mm 0 W/m2
22:24 -8 °C -9.8 °C 1015.1 hPa West 3.2 km/h 3.2 km/h 87% 0 mm 0 W/m2
22:30 -7.9 °C -9.7 °C 1015.1 hPa West 3.2 km/h 3.2 km/h 87% 0 mm 0 W/m2
22:36 -7.9 °C -9.6 °C 1015.1 hPa West 1.6 km/h 4.8 km/h 88% 0 mm 0 W/m2
22:42 -7.9 °C -9.7 °C 1015.1 hPa West 3.2 km/h 3.2 km/h 87% 0 mm 0 W/m2
22:48 -7.9 °C -9.6 °C 1015.1 hPa WNW 3.2 km/h 3.2 km/h 88% 0 mm 0 W/m2
22:54 -7.9 °C -9.6 °C 1015.1 hPa West 3.2 km/h 4.8 km/h 88% 0 mm 0 W/m2
23:00 -7.9 °C -9.6 °C 1015.1 hPa West 3.2 km/h 3.2 km/h 88% 0 mm 0 W/m2
23:06 -7.9 °C -9.6 °C 1015.1 hPa West 3.2 km/h 4.8 km/h 88% 0 mm 0 W/m2
23:12 -7.9 °C -9.6 °C 1015.1 hPa West 1.6 km/h 3.2 km/h 88% 0 mm 0 W/m2
23:18 -7.9 °C -9.6 °C 1015.5 hPa West 1.6 km/h 4.8 km/h 88% 0 mm 0 W/m2
23:24 -7.8 °C -9.5 °C 1015.5 hPa West 3.2 km/h 3.2 km/h 88% 0 mm 0 W/m2
23:30 -7.8 °C -9.5 °C 1015.5 hPa West 3.2 km/h 3.2 km/h 88% 0 mm 0 W/m2
23:36 -7.8 °C -9.4 °C 1015.5 hPa West 3.2 km/h 3.2 km/h 88% 0 mm 0 W/m2
23:42 -7.7 °C -9.4 °C 1015.8 hPa West 3.2 km/h 3.2 km/h 88% 0 mm 0 W/m2
23:48 -7.6 °C -9.3 °C 1015.8 hPa WNW 4.8 km/h 8 km/h 87% 0 mm 0 W/m2
23:54 -7.3 °C -9.3 °C 1015.8 hPa NW 6.4 km/h 8 km/h 86% 0 mm 0 W/m2
Country Meadow, Clay, NY, USA
Compliments of Weather Underground - 2 mb